createdAt,value
2018-08-09T00:00:27.797Z,8.13
2018-08-09T00:02:57.009Z,8.18
2018-08-09T00:05:26.159Z,8.55
2018-08-09T00:07:55.308Z,8.15
2018-08-09T00:10:24.461Z,8.00
2018-08-09T00:12:53.594Z,7.70
2018-08-09T00:15:22.770Z,7.72
2018-08-09T00:17:51.880Z,8.00
2018-08-09T00:20:21.022Z,7.17
2018-08-09T00:22:50.161Z,7.78
2018-08-09T00:25:19.374Z,6.83
2018-08-09T00:27:48.501Z,7.17
2018-08-09T00:30:17.628Z,6.85
2018-08-09T00:32:46.747Z,7.90
2018-08-09T00:35:15.822Z,7.57
2018-08-09T00:37:44.947Z,8.67
2018-08-09T00:40:14.090Z,7.55
2018-08-09T00:42:43.257Z,7.53
2018-08-09T00:45:12.385Z,7.17
2018-08-09T00:47:41.539Z,7.37
2018-08-09T00:50:10.662Z,8.58
2018-08-09T00:52:39.796Z,8.00
2018-08-09T00:55:08.925Z,7.45
2018-08-09T00:57:38.061Z,7.78
2018-08-09T01:00:07.257Z,7.93
2018-08-09T01:02:36.449Z,7.85
2018-08-09T01:05:05.619Z,7.33
2018-08-09T01:07:34.778Z,7.35
2018-08-09T01:10:04.541Z,8.03
2018-08-09T01:12:33.738Z,7.95
2018-08-09T01:15:02.920Z,8.20
2018-08-09T01:17:32.031Z,8.63
2018-08-09T01:20:01.279Z,8.40
2018-08-09T01:22:30.400Z,8.90
2018-08-09T01:24:59.497Z,8.38
2018-08-09T01:27:28.695Z,8.83
2018-08-09T01:29:57.862Z,8.83
2018-08-09T01:32:27.113Z,8.45
2018-08-09T01:34:56.305Z,8.40
2018-08-09T01:37:25.464Z,8.25
2018-08-09T01:39:54.584Z,8.60
2018-08-09T01:42:34.977Z,7.72
2018-08-09T01:45:04.232Z,8.35
2018-08-09T01:47:33.381Z,8.78
2018-08-09T01:50:02.762Z,8.88
2018-08-09T01:52:32.026Z,8.80
2018-08-09T01:55:01.128Z,9.00
2018-08-09T01:57:30.671Z,9.03
2018-08-09T01:59:59.837Z,8.75
2018-08-09T02:02:28.925Z,8.50
2018-08-09T02:04:58.112Z,9.63
2018-08-09T02:07:27.211Z,9.80
2018-08-09T02:09:56.368Z,9.60
2018-08-09T02:12:25.473Z,9.67
2018-08-09T02:14:54.625Z,8.95
2018-08-09T02:17:23.737Z,10.30
2018-08-09T02:19:52.879Z,10.20
2018-08-09T02:22:22.001Z,10.30
2018-08-09T02:24:51.169Z,9.80
2018-08-09T02:27:20.291Z,10.13
2018-08-09T02:29:49.419Z,8.67
2018-08-09T02:32:18.593Z,8.70
2018-08-09T02:34:47.716Z,8.90
2018-08-09T02:37:16.857Z,10.03
2018-08-09T02:39:45.980Z,9.78
2018-08-09T02:42:15.093Z,9.78
2018-08-09T02:44:44.206Z,10.13
2018-08-09T02:47:13.334Z,10.40
2018-08-09T02:49:42.462Z,9.73
2018-08-09T02:52:11.582Z,9.90
2018-08-09T02:54:40.722Z,9.73
2018-08-09T02:57:09.820Z,9.80
2018-08-09T02:59:38.952Z,9.37
2018-08-09T03:02:08.084Z,10.10
2018-08-09T03:04:37.194Z,10.17
2018-08-09T03:07:06.884Z,10.58
2018-08-09T03:09:36.004Z,11.43
2018-08-09T03:12:05.185Z,10.50
2018-08-09T03:14:34.375Z,9.70
2018-08-09T03:17:03.497Z,9.43
2018-08-09T03:19:32.633Z,9.07
2018-08-09T03:22:01.726Z,8.60
2018-08-09T03:24:30.882Z,8.50
2018-08-09T03:27:00.015Z,8.63
2018-08-09T03:29:29.173Z,7.67
2018-08-09T03:31:58.331Z,7.93
2018-08-09T03:34:27.475Z,7.80
2018-08-09T03:36:56.668Z,7.40
2018-08-09T03:39:25.793Z,7.87
2018-08-09T03:41:54.911Z,7.70
2018-08-09T03:44:24.176Z,7.73
2018-08-09T03:46:53.301Z,8.10
2018-08-09T03:49:22.438Z,7.97
2018-08-09T03:51:51.550Z,8.50
2018-08-09T03:54:20.717Z,8.30
2018-08-09T03:56:49.854Z,7.40
2018-08-09T03:59:19.020Z,8.28
2018-08-09T04:01:48.142Z,7.97
2018-08-09T04:04:17.407Z,8.27
2018-08-09T04:06:46.518Z,7.80
2018-08-09T04:09:15.663Z,7.47
2018-08-09T04:11:44.933Z,8.10
2018-08-09T04:14:14.070Z,7.97
2018-08-09T04:16:43.253Z,8.23
2018-08-09T04:19:12.364Z,8.20
2018-08-09T04:21:41.495Z,8.50
2018-08-09T04:24:10.673Z,7.67
2018-08-09T04:26:39.852Z,8.63
2018-08-09T04:29:09.060Z,8.70
2018-08-09T04:31:38.222Z,8.13
2018-08-09T04:34:07.404Z,8.90
2018-08-09T04:36:36.569Z,8.63
2018-08-09T04:39:07.577Z,8.73
2018-08-09T04:41:36.764Z,9.43
2018-08-09T04:44:05.950Z,8.07
2018-08-09T04:46:35.121Z,8.23
2018-08-09T04:49:04.347Z,8.00
2018-08-09T04:51:33.534Z,8.13
2018-08-09T04:54:02.725Z,8.45
2018-08-09T04:56:31.905Z,7.73
2018-08-09T04:59:01.042Z,8.93
2018-08-09T05:01:30.253Z,9.63
2018-08-09T05:03:59.505Z,8.53
2018-08-09T05:06:28.648Z,8.27
2018-08-09T05:08:57.824Z,8.73
2018-08-09T05:11:27.004Z,8.77
2018-08-09T05:13:56.297Z,9.70
2018-08-09T05:16:25.594Z,9.27
2018-08-09T05:18:54.757Z,9.70
2018-08-09T05:21:23.906Z,9.67
2018-08-09T05:23:53.052Z,10.03
2018-08-09T05:26:22.230Z,9.77
2018-08-09T05:28:51.351Z,9.20
2018-08-09T05:31:20.523Z,9.50
2018-08-09T05:33:49.636Z,9.17
2018-08-09T05:36:18.809Z,10.50
2018-08-09T05:38:48.324Z,9.47
2018-08-09T05:41:17.472Z,9.70
2018-08-09T05:43:46.647Z,9.53
2018-08-09T05:46:15.825Z,8.87
2018-08-09T05:48:45.007Z,9.13
2018-08-09T05:51:14.172Z,9.60
2018-08-09T05:53:43.340Z,8.80
2018-08-09T05:56:12.649Z,9.07
2018-08-09T05:58:41.770Z,8.57
2018-08-09T06:01:11.014Z,8.47
2018-08-09T06:03:40.160Z,9.05
2018-08-09T06:06:09.340Z,9.60
2018-08-09T06:08:38.497Z,8.77
2018-08-09T06:11:07.750Z,8.87
2018-08-09T06:13:36.921Z,9.57
2018-08-09T06:16:06.369Z,8.80
2018-08-09T06:18:35.565Z,9.47
2018-08-09T06:21:04.873Z,10.10
2018-08-09T06:23:34.041Z,9.53
2018-08-09T06:26:03.189Z,10.13
2018-08-09T06:28:32.335Z,9.90
2018-08-09T06:31:01.611Z,9.93
2018-08-09T06:33:31.205Z,9.63
2018-08-09T06:36:00.425Z,8.83
2018-08-09T06:38:29.656Z,9.18
2018-08-09T06:40:58.837Z,8.45
2018-08-09T06:43:28.028Z,9.13
2018-08-09T06:45:57.174Z,8.60
2018-08-09T06:48:26.355Z,10.40
2018-08-09T06:50:55.544Z,8.78
2018-08-09T06:53:24.668Z,8.18
2018-08-09T06:55:53.834Z,8.30
2018-08-09T06:58:22.987Z,9.05
2018-08-09T07:00:52.158Z,8.90
2018-08-09T07:03:21.412Z,9.48
2018-08-09T07:05:50.564Z,9.50
2018-08-09T07:08:19.689Z,8.15
2018-08-09T07:10:48.967Z,9.33
2018-08-09T07:13:18.098Z,8.65
2018-08-09T07:15:47.240Z,10.05
2018-08-09T07:18:16.408Z,9.35
2018-08-09T07:20:45.558Z,9.83
2018-08-09T07:23:14.700Z,10.20
2018-08-09T07:25:43.812Z,9.98
2018-08-09T07:28:12.954Z,8.33
2018-08-09T07:30:42.088Z,8.63
2018-08-09T07:33:11.278Z,8.08
2018-08-09T07:35:40.407Z,8.50
2018-08-09T07:38:09.626Z,7.97
2018-08-09T07:40:38.769Z,8.65
2018-08-09T07:43:07.954Z,9.25
2018-08-09T07:45:37.121Z,8.90
2018-08-09T07:48:06.284Z,7.75
2018-08-09T07:50:35.436Z,9.10
2018-08-09T07:53:04.633Z,7.87
2018-08-09T07:55:33.789Z,8.30
2018-08-09T07:58:02.962Z,7.95
2018-08-09T08:00:32.117Z,7.65
2018-08-09T08:03:01.367Z,7.92
2018-08-09T08:05:30.521Z,7.90
2018-08-09T08:07:59.659Z,7.85
2018-08-09T08:10:29.023Z,7.30
2018-08-09T08:12:58.213Z,7.60
2018-08-09T08:15:27.409Z,7.55
2018-08-09T08:17:56.569Z,6.60
2018-08-09T08:20:25.786Z,6.62
2018-08-09T08:22:54.923Z,6.33
2018-08-09T08:25:24.061Z,7.20
2018-08-09T08:27:53.205Z,5.87
2018-08-09T08:30:22.343Z,7.47
2018-08-09T08:32:51.502Z,6.35
2018-08-09T08:35:20.730Z,6.35
2018-08-09T08:37:49.847Z,6.20
2018-08-09T08:40:19.007Z,6.28
2018-08-09T08:42:48.142Z,7.47
2018-08-09T08:45:17.348Z,8.40
2018-08-09T08:47:46.553Z,6.75
2018-08-09T08:50:15.737Z,6.37
2018-08-09T08:52:45.561Z,6.33
2018-08-09T08:55:14.869Z,6.22
2018-08-09T08:57:43.964Z,6.80
2018-08-09T09:00:13.724Z,6.85
2018-08-09T09:02:42.925Z,6.50
2018-08-09T09:05:13.117Z,5.80
2018-08-09T09:07:42.285Z,6.50
2018-08-09T09:10:13.070Z,6.60
2018-08-09T09:12:42.367Z,7.90
2018-08-09T09:15:14.170Z,7.25
2018-08-09T09:17:44.373Z,7.08
2018-08-09T09:20:15.008Z,7.25
2018-08-09T09:22:45.311Z,8.70
2018-08-09T09:25:14.529Z,7.33
2018-08-09T09:27:43.871Z,6.20
2018-08-09T09:30:19.332Z,7.00
2018-08-09T09:32:48.569Z,6.80
2018-08-09T09:35:17.752Z,10.28
2018-08-09T09:37:46.915Z,9.70
2018-08-09T09:40:16.167Z,11.83
2018-08-09T09:42:45.440Z,8.40
2018-08-09T09:45:14.599Z,7.22
2018-08-09T09:47:43.777Z,7.20
2018-08-09T09:50:13.153Z,7.28
2018-08-09T09:52:42.758Z,8.80
2018-08-09T09:55:11.994Z,6.95
2018-08-09T09:57:41.166Z,8.20
2018-08-09T10:00:15.690Z,6.62
2018-08-09T10:02:45.381Z,6.12
2018-08-09T10:05:14.773Z,7.12
2018-08-09T10:07:43.904Z,6.40
2018-08-09T10:10:13.254Z,7.33
2018-08-09T10:12:42.932Z,6.22
2018-08-09T10:15:12.417Z,6.28
2018-08-09T10:17:41.612Z,5.97
2018-08-09T10:20:10.800Z,6.12
2018-08-09T10:22:39.942Z,5.53
2018-08-09T10:25:09.105Z,6.10
2018-08-09T10:27:38.221Z,6.35
2018-08-09T10:30:07.988Z,5.75
2018-08-09T10:32:37.285Z,5.20
2018-08-09T10:35:06.466Z,5.75
2018-08-09T10:37:35.624Z,5.08
2018-08-09T10:40:05.389Z,5.58
2018-08-09T10:42:34.545Z,5.33
2018-08-09T10:45:03.777Z,5.58
2018-08-09T10:47:33.231Z,5.58
2018-08-09T10:50:02.352Z,5.50
2018-08-09T10:52:31.736Z,5.42
2018-08-09T10:55:00.859Z,4.80
2018-08-09T10:57:30.070Z,5.65
2018-08-09T10:59:59.193Z,5.30
2018-08-09T11:02:28.339Z,5.62
2018-08-09T11:04:57.566Z,5.87
2018-08-09T11:07:26.859Z,5.25
2018-08-09T11:09:56.025Z,4.97
2018-08-09T11:12:25.174Z,4.55
2018-08-09T11:14:54.334Z,5.30
2018-08-09T11:17:23.430Z,5.20
2018-08-09T11:19:52.572Z,5.45
2018-08-09T11:22:21.707Z,5.10
2018-08-09T11:24:50.859Z,5.42
2018-08-09T11:27:20.057Z,5.90
2018-08-09T11:29:49.232Z,6.05
2018-08-09T11:32:18.346Z,5.78
2018-08-09T11:34:47.546Z,6.47
2018-08-09T11:37:16.690Z,6.95
2018-08-09T11:39:45.918Z,8.30
2018-08-09T11:42:15.057Z,6.83
2018-08-09T11:44:44.241Z,5.47
2018-08-09T11:47:13.350Z,5.10
2018-08-09T11:49:42.456Z,5.30
2018-08-09T11:52:11.624Z,4.65
2018-08-09T11:54:40.818Z,4.67
2018-08-09T11:57:09.967Z,5.22
2018-08-09T11:59:39.220Z,5.65
2018-08-09T12:02:09.566Z,5.05
2018-08-09T12:04:45.279Z,5.20
2018-08-09T12:07:14.579Z,4.90
2018-08-09T12:09:43.616Z,5.20
2018-08-09T12:12:12.784Z,5.37
2018-08-09T12:14:42.010Z,5.72
2018-08-09T12:17:11.130Z,5.10
2018-08-09T12:19:40.301Z,5.42
2018-08-09T12:22:09.414Z,4.87
2018-08-09T12:24:38.585Z,4.47
2018-08-09T12:27:07.789Z,4.50
2018-08-09T12:29:36.906Z,4.70
2018-08-09T12:32:06.804Z,5.05
2018-08-09T12:34:35.946Z,5.10
2018-08-09T12:37:05.170Z,4.53
2018-08-09T12:39:34.286Z,4.75
2018-08-09T12:42:03.503Z,4.65
2018-08-09T12:44:32.705Z,5.67
2018-08-09T12:47:01.881Z,4.85
2018-08-09T12:49:31.092Z,5.78
2018-08-09T12:52:00.347Z,4.47
2018-08-09T12:54:29.497Z,4.80
2018-08-09T12:56:58.657Z,4.60
2018-08-09T12:59:27.865Z,3.98
2018-08-09T13:01:57.090Z,4.37
2018-08-09T13:04:27.297Z,4.37
2018-08-09T13:06:56.478Z,4.70
2018-08-09T13:09:25.682Z,4.53
2018-08-09T13:11:54.913Z,4.85
2018-08-09T13:14:24.103Z,4.22
2018-08-09T13:16:53.313Z,4.80
2018-08-09T13:19:22.493Z,4.28
2018-08-09T13:21:51.696Z,4.12
2018-08-09T13:24:20.872Z,4.95
2018-08-09T13:26:50.118Z,4.78
2018-08-09T13:29:19.281Z,4.50
2018-08-09T13:31:48.450Z,5.53
2018-08-09T13:34:17.649Z,3.85
2018-08-09T13:36:46.996Z,3.52
2018-08-09T13:39:16.133Z,3.15
2018-08-09T13:41:45.985Z,3.80
2018-08-09T13:44:15.180Z,3.37
2018-08-09T13:46:44.502Z,3.92
2018-08-09T13:49:13.583Z,3.20
2018-08-09T13:51:42.737Z,3.02
2018-08-09T13:54:11.894Z,3.10
2018-08-09T13:56:41.074Z,3.40
2018-08-09T13:59:10.257Z,3.02
2018-08-09T14:01:39.704Z,3.83
2018-08-09T14:04:08.993Z,3.05
2018-08-09T14:06:38.154Z,3.33
2018-08-09T14:09:10.038Z,3.77
2018-08-09T14:11:39.438Z,3.47
2018-08-09T14:14:08.566Z,3.70
2018-08-09T14:16:38.332Z,3.05
2018-08-09T14:19:07.734Z,3.60
2018-08-09T14:21:36.973Z,3.45
2018-08-09T14:24:06.435Z,3.42
2018-08-09T14:26:35.641Z,3.40
2018-08-09T14:29:05.924Z,3.50
2018-08-09T14:31:35.382Z,3.45
2018-08-09T14:34:04.727Z,3.10
2018-08-09T14:36:33.905Z,3.10
2018-08-09T14:39:03.455Z,3.30
2018-08-09T14:41:32.576Z,3.22
2018-08-09T14:44:01.694Z,3.50
2018-08-09T14:46:31.816Z,3.15
2018-08-09T14:49:00.928Z,3.60
2018-08-09T14:51:30.198Z,3.15
2018-08-09T14:53:59.487Z,3.67
2018-08-09T14:56:28.690Z,3.27
2018-08-09T14:58:57.959Z,3.10
2018-08-09T15:01:27.301Z,3.45
2018-08-09T15:03:56.617Z,3.47
2018-08-09T15:06:25.887Z,3.60
2018-08-09T15:08:55.086Z,3.50
2018-08-09T15:11:24.441Z,3.55
2018-08-09T15:13:53.621Z,3.50
2018-08-09T15:16:22.809Z,3.45
2018-08-09T15:18:52.024Z,3.65
2018-08-09T15:21:21.225Z,4.58
2018-08-09T15:23:50.418Z,3.67
2018-08-09T15:26:19.619Z,3.10
2018-08-09T15:28:48.823Z,3.40
2018-08-09T15:31:18.122Z,3.42
2018-08-09T15:33:47.301Z,3.70
2018-08-09T15:36:16.449Z,3.58
2018-08-09T15:38:45.650Z,3.58
2018-08-09T15:41:14.779Z,4.05
2018-08-09T15:43:44.025Z,4.20
2018-08-09T15:46:13.210Z,3.72
2018-08-09T15:48:42.426Z,3.60
2018-08-09T15:51:11.609Z,4.10
2018-08-09T15:53:40.793Z,3.83
2018-08-09T15:56:09.958Z,3.40
2018-08-09T15:58:39.175Z,3.98
2018-08-09T16:01:08.714Z,3.85
2018-08-09T16:03:37.954Z,4.17
2018-08-09T16:06:07.152Z,3.70
2018-08-09T16:08:36.314Z,3.90
2018-08-09T16:11:05.546Z,3.80
2018-08-09T16:13:34.691Z,4.45
2018-08-09T16:16:04.960Z,3.55
2018-08-09T16:18:34.213Z,3.40
2018-08-09T16:21:03.571Z,3.42
2018-08-09T16:23:32.818Z,3.80
2018-08-09T16:26:02.049Z,4.00
2018-08-09T16:28:31.264Z,4.50
2018-08-09T16:31:00.491Z,3.67
2018-08-09T16:33:29.730Z,3.42
2018-08-09T16:35:58.996Z,3.75
2018-08-09T16:38:28.340Z,4.10
2018-08-09T16:40:57.551Z,4.20
2018-08-09T16:43:26.849Z,3.77
2018-08-09T16:45:56.395Z,3.83
2018-08-09T16:48:26.033Z,4.47
2018-08-09T16:50:55.317Z,3.77
2018-08-09T16:53:24.742Z,3.20
2018-08-09T16:55:53.870Z,3.10
2018-08-09T16:58:23.030Z,3.62
2018-08-09T17:00:52.199Z,2.70
2018-08-09T17:03:21.329Z,3.20
2018-08-09T17:05:50.515Z,2.80
2018-08-09T17:08:19.720Z,2.77
2018-08-09T17:10:49.257Z,2.70
2018-08-09T17:13:18.452Z,3.20
2018-08-09T17:15:47.981Z,3.00
2018-08-09T17:18:17.263Z,2.65
2018-08-09T17:20:46.551Z,2.95
2018-08-09T17:23:15.722Z,3.17
2018-08-09T17:25:44.936Z,2.65
2018-08-09T17:28:15.382Z,2.80
2018-08-09T17:30:44.528Z,2.80
2018-08-09T17:33:13.781Z,2.67
2018-08-09T17:35:42.999Z,2.70
2018-08-09T17:38:12.201Z,2.50
2018-08-09T17:40:42.165Z,2.35
2018-08-09T17:43:11.342Z,2.27
2018-08-09T17:45:40.543Z,3.27
2018-08-09T17:48:09.769Z,3.50
2018-08-09T17:50:38.975Z,4.45
2018-08-09T17:53:08.876Z,3.30
2018-08-09T17:55:38.134Z,3.27
2018-08-09T17:58:07.454Z,3.70
2018-08-09T18:00:36.766Z,3.70
2018-08-09T18:03:06.008Z,2.77
2018-08-09T18:05:35.294Z,2.90
2018-08-09T18:08:04.643Z,2.60
2018-08-09T18:10:35.264Z,2.02
2018-08-09T18:13:04.457Z,3.40
2018-08-09T18:15:33.711Z,2.50
2018-08-09T18:18:03.325Z,3.22
2018-08-09T18:20:35.037Z,2.70
2018-08-09T18:23:04.288Z,2.80
2018-08-09T18:25:33.568Z,2.83
2018-08-09T18:28:02.791Z,3.00
2018-08-09T18:30:32.073Z,3.22
2018-08-09T18:33:01.297Z,2.87
2018-08-09T18:35:30.528Z,3.22
2018-08-09T18:37:59.745Z,2.50
2018-08-09T18:40:29.386Z,2.40
2018-08-09T18:42:58.893Z,2.58
2018-08-09T18:45:28.716Z,2.30
2018-08-09T18:47:57.978Z,4.03
2018-08-09T18:50:29.401Z,4.55
2018-08-09T18:52:58.729Z,3.45
2018-08-09T18:55:27.931Z,3.00
2018-08-09T18:57:57.167Z,2.80
2018-08-09T19:00:28.138Z,3.02
2018-08-09T19:02:57.591Z,3.55
2018-08-09T19:05:27.134Z,3.30
2018-08-09T19:07:56.426Z,3.37
2018-08-09T19:10:27.601Z,2.98
2018-08-09T19:12:56.839Z,3.10
2018-08-09T19:15:26.875Z,3.50
2018-08-09T19:17:56.314Z,3.20
2018-08-09T19:20:28.064Z,2.87
2018-08-09T19:22:57.962Z,2.75
2018-08-09T19:25:27.242Z,2.42
2018-08-09T19:27:56.575Z,3.10
2018-08-09T19:30:27.796Z,2.47
2018-08-09T19:32:57.171Z,2.87
2018-08-09T19:35:26.462Z,2.83
2018-08-09T19:37:55.685Z,2.60
2018-08-09T19:40:28.270Z,2.53
2018-08-09T19:42:57.475Z,2.80
2018-08-09T19:45:26.830Z,2.50
2018-08-09T19:47:56.117Z,2.60
2018-08-09T19:50:25.828Z,2.60
2018-08-09T19:52:55.048Z,2.27
2018-08-09T19:55:25.636Z,3.10
2018-08-09T19:57:54.892Z,2.27
2018-08-09T20:00:25.472Z,2.70
2018-08-09T20:02:54.755Z,2.50
2018-08-09T20:05:24.366Z,2.97
2018-08-09T20:07:53.701Z,2.33
2018-08-09T20:10:22.998Z,2.98
2018-08-09T20:12:52.245Z,2.47
2018-08-09T20:15:23.511Z,2.60
2018-08-09T20:17:52.771Z,3.12
2018-08-09T20:20:23.539Z,3.70
2018-08-09T20:22:52.837Z,3.58
2018-08-09T20:25:47.216Z,2.77
2018-08-09T20:28:16.390Z,2.77
2018-08-09T20:30:45.611Z,3.30
2018-08-09T20:33:14.819Z,4.20
2018-08-09T20:35:44.707Z,2.95
2018-08-09T20:38:15.150Z,3.00
2018-08-09T20:40:44.405Z,2.90
2018-08-09T20:43:13.632Z,3.43
2018-08-09T20:45:42.839Z,3.30
2018-08-09T20:48:12.062Z,3.77
2018-08-09T20:50:41.266Z,3.65
2018-08-09T20:53:10.540Z,4.07
2018-08-09T20:55:39.843Z,4.05
2018-08-09T20:58:09.060Z,3.62
2018-08-09T21:00:38.225Z,2.95
2018-08-09T21:03:07.482Z,3.40
2018-08-09T21:05:37.989Z,2.90
2018-08-09T21:08:07.479Z,3.20
2018-08-09T21:10:36.690Z,3.50
2018-08-09T21:13:05.976Z,3.87
2018-08-09T21:15:35.206Z,3.87
2018-08-09T21:18:04.465Z,3.50
2018-08-09T21:20:33.656Z,3.47
2018-08-09T21:23:02.826Z,3.05
2018-08-09T21:25:32.092Z,3.20
2018-08-09T21:28:01.235Z,3.40
2018-08-09T21:30:30.474Z,3.22
2018-08-09T21:32:59.680Z,3.03
2018-08-09T21:35:28.947Z,3.10
2018-08-09T21:37:58.124Z,3.15
2018-08-09T21:40:27.298Z,3.40
2018-08-09T21:42:56.508Z,3.27
2018-08-09T21:45:25.682Z,3.80
2018-08-09T21:47:54.827Z,3.40
2018-08-09T21:50:24.047Z,3.10
2018-08-09T21:52:53.212Z,3.92
2018-08-09T21:55:22.390Z,3.40
2018-08-09T21:57:51.554Z,3.37
2018-08-09T22:01:00.606Z,3.12
2018-08-09T22:03:31.947Z,3.27
2018-08-09T22:06:06.412Z,3.20
2018-08-09T22:09:40.680Z,3.30
2018-08-09T22:12:15.227Z,2.50
2018-08-09T22:14:49.646Z,3.02
2018-08-09T22:17:24.172Z,2.70
2018-08-09T22:19:58.579Z,1.90
2018-08-09T22:22:27.961Z,2.25
2018-08-09T22:24:57.142Z,2.85
2018-08-09T22:27:26.381Z,2.20
2018-08-09T22:29:55.534Z,2.15
2018-08-09T22:32:24.992Z,2.10
2018-08-09T22:34:54.186Z,2.17
2018-08-09T22:37:23.318Z,2.17
2018-08-09T22:39:52.588Z,1.90
2018-08-09T22:42:22.053Z,2.00
2018-08-09T22:44:51.370Z,1.90
2018-08-09T22:47:20.603Z,1.90
2018-08-09T22:49:49.937Z,1.80
2018-08-09T22:52:19.230Z,1.60
2018-08-09T22:54:48.469Z,1.70
2018-08-09T22:57:17.664Z,2.10
2018-08-09T22:59:46.981Z,2.30
2018-08-09T23:02:16.212Z,1.72
2018-08-09T23:04:45.362Z,1.60
2018-08-09T23:07:14.610Z,1.70
2018-08-09T23:09:43.866Z,1.87
2018-08-09T23:12:13.196Z,1.70
2018-08-09T23:14:42.486Z,1.70
2018-08-09T23:17:11.988Z,1.43
2018-08-09T23:19:41.361Z,1.65
2018-08-09T23:22:11.026Z,1.70
2018-08-09T23:24:40.297Z,2.40
2018-08-09T23:27:09.463Z,2.17
2018-08-09T23:29:38.644Z,1.40
2018-08-09T23:32:07.900Z,1.67
2018-08-09T23:34:37.186Z,3.70
2018-08-09T23:37:06.454Z,1.67
2018-08-09T23:39:35.744Z,1.30
2018-08-09T23:42:05.001Z,1.27
2018-08-09T23:44:34.234Z,1.27
2018-08-09T23:47:03.413Z,1.10
2018-08-09T23:49:32.625Z,0.90
2018-08-09T23:52:01.856Z,0.97
2018-08-09T23:54:31.005Z,0.87
2018-08-09T23:57:00.947Z,1.00
2018-08-09T23:59:30.158Z,0.70
